Time;durP1;ratioP1;P1;durP2;ratioP2;P2;SDS_P1;SDS_P2;PMS_P1;PMS_P2;Temp;Humidity;BMP_temperature;BMP_pressure;BME280_temperature;BME280_humidity;BME280_pressure;Samples;Min_cycle;Max_cycle;Signal;HPM_P1;HPM_P2
2021/12/07 00:01:21;;;;;;;5.35;4.40;;;;;;;;;;5078490;28;20040;-51
2021/12/07 00:03:46;;;;;;;5.00;4.50;;;;;;;;;;5077670;28;20032;-51
2021/12/07 00:06:13;;;;;;;7.22;5.32;;;;;;;;;;5079402;28;20033;-51
2021/12/07 00:08:40;;;;;;;9.00;4.88;;;;;;;;;;5074375;28;20032;-50
2021/12/07 00:11:06;;;;;;;4.97;4.25;;;;;;;;;;5075301;28;20099;-48
2021/12/07 00:13:36;;;;;;;5.25;4.32;;;;;;;;;;5081710;28;20032;-51
2021/12/07 00:16:05;;;;;;;5.53;4.60;;;;;;;;;;5076304;28;20104;-51
2021/12/07 00:18:30;;;;;;;4.22;3.80;;;;;;;;;;5080321;28;20028;-53
2021/12/07 00:20:56;;;;;;;3.83;3.42;;;;;;;;;;5073633;28;20025;-54
2021/12/07 00:23:22;;;;;;;3.80;3.40;;;;;;;;;;5073999;28;20028;-51
2021/12/07 00:25:48;;;;;;;3.97;3.58;;;;;;;;;;5086689;28;20044;-49
2021/12/07 00:28:14;;;;;;;3.72;3.33;;;;;;;;;;5079210;28;20036;-49
2021/12/07 00:30:40;;;;;;;3.45;3.13;;;;;;;;;;5079393;28;20032;-51
2021/12/07 00:33:34;;;;;;;4.05;3.75;;;;;;;;;;5076997;28;20116;-50
2021/12/07 00:36:00;;;;;;;4.30;3.55;;;;;;;;;;5077941;28;20119;-53
2021/12/07 00:38:28;;;;;;;4.40;4.00;;;;;;;;;;5076702;28;20029;-48
2021/12/07 00:40:56;;;;;;;4.53;3.90;;;;;;;;;;5079964;28;20036;-46
2021/12/07 00:43:22;;;;;;;8.82;4.25;;;;;;;;;;5074686;28;20047;-51
2021/12/07 00:45:50;;;;;;;4.80;4.30;;;;;;;;;;5076802;28;20047;-54
2021/12/07 00:48:16;;;;;;;4.53;4.13;;;;;;;;;;5075073;28;20032;-52
2021/12/07 00:50:45;;;;;;;8.05;4.00;;;;;;;;;;5071519;28;20093;-52
2021/12/07 00:53:11;;;;;;;6.10;4.65;;;;;;;;;;5072916;28;20089;-53
2021/12/07 00:55:41;;;;;;;4.90;4.32;;;;;;;;;;5088301;28;20089;-52
2021/12/07 00:58:16;;;;;;;4.88;4.47;;;;;;;;;;5073326;28;20048;-50
2021/12/07 01:00:43;;;;;;;4.97;4.32;;;;;;;;;;5078196;28;20029;-54
2021/12/07 01:03:08;;;;;;;7.38;4.90;;;;;;;;;;5074462;28;20377;-52
2021/12/07 01:05:36;;;;;;;6.63;5.10;;;;;;;;;;5073981;28;20032;-53
2021/12/07 01:27:03;;;;;;;5.63;4.15;;;;;;;;;;5077149;28;20031;-50
2021/12/07 01:29:29;;;;;;;4.60;4.20;;;;;;;;;;5079706;28;20082;-52
2021/12/07 01:32:08;;;;;;;5.95;4.28;;;;;;;;;;5071796;28;20044;-53
2021/12/07 01:37:33;;;;;;;4.50;3.83;;;;;;;;;;5079248;28;20043;-53
2021/12/07 01:51:33;;;;;;;5.85;4.45;;;;;;;;;;5032092;28;20041;-45
2021/12/07 01:59:34;;;;;;;4.53;4.10;;;;;;;;;;5031844;28;20033;-46
2021/12/07 02:02:12;;;;;;;4.65;4.10;;;;;;;;;;5032553;28;20064;-45
2021/12/07 02:04:38;;;;;;;4.95;4.15;;;;;;;;;;5035033;28;20037;-46
2021/12/07 02:07:06;;;;;;;4.45;4.00;;;;;;;;;;5044541;28;20591;-47
2021/12/07 02:09:34;;;;;;;4.03;3.72;;;;;;;;;;5033676;28;20044;-46
2021/12/07 02:12:02;;;;;;;4.75;4.03;;;;;;;;;;5038599;28;20048;-45
2021/12/07 02:14:30;;;;;;;5.53;3.92;;;;;;;;;;5033196;28;20057;-47
2021/12/07 02:17:07;;;;;;;4.78;4.22;;;;;;;;;;5032101;28;20045;-49
2021/12/07 02:19:34;;;;;;;4.45;3.95;;;;;;;;;;5033633;28;20061;-50
2021/12/07 02:22:00;;;;;;;5.40;4.47;;;;;;;;;;5067421;28;20439;-49
2021/12/07 02:24:26;;;;;;;6.35;4.82;;;;;;;;;;5075488;28;20055;-48
2021/12/07 02:26:53;;;;;;;5.53;4.55;;;;;;;;;;5076942;28;20164;-47
2021/12/07 02:29:19;;;;;;;4.57;4.18;;;;;;;;;;5076316;28;20020;-48
2021/12/07 02:31:46;;;;;;;5.82;4.53;;;;;;;;;;5073522;28;20043;-48
2021/12/07 02:34:13;;;;;;;4.45;3.90;;;;;;;;;;5079097;28;20044;-47
2021/12/07 02:36:39;;;;;;;6.30;3.92;;;;;;;;;;5072506;28;20028;-47
2021/12/07 02:39:09;;;;;;;5.70;3.80;;;;;;;;;;5077391;28;20024;-45
2021/12/07 02:41:35;;;;;;;4.30;3.90;;;;;;;;;;5073552;28;20032;-46
2021/12/07 02:44:05;;;;;;;4.53;3.92;;;;;;;;;;5074126;28;20119;-46
2021/12/07 02:46:31;;;;;;;3.88;3.17;;;;;;;;;;5078284;28;20064;-45
2021/12/07 02:48:57;;;;;;;3.58;3.28;;;;;;;;;;5076953;28;20075;-45
2021/12/07 02:51:22;;;;;;;4.18;3.60;;;;;;;;;;5084134;28;20445;-46
2021/12/07 02:53:48;;;;;;;3.85;3.50;;;;;;;;;;5075664;28;20028;-45
2021/12/07 02:56:15;;;;;;;4.07;3.40;;;;;;;;;;5079793;28;20028;-46
2021/12/07 02:58:43;;;;;;;4.70;3.40;;;;;;;;;;5079683;28;20116;-46
2021/12/07 03:01:16;;;;;;;5.85;3.28;;;;;;;;;;5077724;28;20032;-46
2021/12/07 03:28:12;;;;;;;4.50;3.22;;;;;;;;;;5021530;28;20476;-52
2021/12/07 03:30:38;;;;;;;3.72;3.42;;;;;;;;;;5023967;28;20032;-45
2021/12/07 03:33:04;;;;;;;3.65;3.35;;;;;;;;;;5026297;28;20514;-45
2021/12/07 03:35:30;;;;;;;3.60;3.30;;;;;;;;;;5020200;28;20045;-45
2021/12/07 03:37:56;;;;;;;3.05;2.75;;;;;;;;;;5024125;28;20076;-48
2021/12/07 03:40:24;;;;;;;3.30;3.00;;;;;;;;;;5022868;28;20061;-45
2021/12/07 03:42:49;;;;;;;3.90;3.50;;;;;;;;;;5059949;28;20071;-45
2021/12/07 03:45:16;;;;;;;4.20;3.13;;;;;;;;;;5083599;28;20453;-50
2021/12/07 03:47:41;;;;;;;3.42;3.10;;;;;;;;;;5073851;28;20037;-46
2021/12/07 03:50:10;;;;;;;4.45;3.28;;;;;;;;;;5080475;28;20047;-49
2021/12/07 03:52:36;;;;;;;3.15;2.88;;;;;;;;;;5078937;28;20025;-45
2021/12/07 03:55:04;;;;;;;3.28;3.00;;;;;;;;;;5077569;28;20038;-46
2021/12/07 03:57:30;;;;;;;4.32;3.67;;;;;;;;;;5079748;28;20028;-45
2021/12/07 03:59:56;;;;;;;4.35;3.47;;;;;;;;;;5083307;28;20535;-46
2021/12/07 04:02:23;;;;;;;3.78;2.92;;;;;;;;;;5081418;28;20032;-51
2021/12/07 04:04:57;;;;;;;3.33;2.88;;;;;;;;;;5073832;28;20029;-47
2021/12/07 04:07:23;;;;;;;3.35;3.10;;;;;;;;;;5079936;28;20168;-46
2021/12/07 04:09:48;;;;;;;3.83;3.35;;;;;;;;;;5079276;28;20032;-49
2021/12/07 04:12:14;;;;;;;3.65;3.15;;;;;;;;;;5079804;28;20457;-45
2021/12/07 04:14:40;;;;;;;3.65;3.35;;;;;;;;;;5081382;28;20031;-47
2021/12/07 04:17:06;;;;;;;3.38;2.92;;;;;;;;;;5080634;28;20098;-49
2021/12/07 04:19:31;;;;;;;3.45;3.15;;;;;;;;;;5082287;28;20036;-46
2021/12/07 04:21:57;;;;;;;3.72;3.13;;;;;;;;;;5081414;28;20046;-47
2021/12/07 04:24:27;;;;;;;3.17;2.92;;;;;;;;;;5079314;28;20043;-47
2021/12/07 04:26:54;;;;;;;3.42;3.13;;;;;;;;;;5079440;28;20388;-46
2021/12/07 04:29:20;;;;;;;4.95;3.03;;;;;;;;;;5081353;28;20028;-45
2021/12/07 04:31:46;;;;;;;3.33;3.00;;;;;;;;;;5076848;28;20036;-52
2021/12/07 04:34:12;;;;;;;3.20;2.95;;;;;;;;;;5073277;28;20017;-45
2021/12/07 04:36:38;;;;;;;4.20;3.78;;;;;;;;;;5080462;28;20032;-46
2021/12/07 04:39:04;;;;;;;3.25;3.03;;;;;;;;;;5078206;28;20078;-45
2021/12/07 04:41:33;;;;;;;3.08;2.85;;;;;;;;;;5077333;28;20370;-46
2021/12/07 04:44:01;;;;;;;3.30;2.65;;;;;;;;;;5079066;28;20058;-46
2021/12/07 04:46:40;;;;;;;4.55;3.58;;;;;;;;;;5079284;28;20062;-45
2021/12/07 05:00:06;;;;;;;5.43;4.18;;;;;;;;;;5077442;28;20067;-49
2021/12/07 05:02:36;;;;;;;4.20;3.78;;;;;;;;;;5082215;28;20126;-46
2021/12/07 05:05:02;;;;;;;5.35;3.97;;;;;;;;;;5077104;28;20040;-48
2021/12/07 05:07:34;;;;;;;5.22;4.30;;;;;;;;;;5075893;28;20039;-50
2021/12/07 05:15:26;;;;;;;4.85;4.35;;;;;;;;;;5080561;28;20024;-46
2021/12/07 05:39:39;;;;;;;6.50;4.20;;;;;;;;;;5075961;28;20116;-50
2021/12/07 05:42:05;;;;;;;6.90;4.65;;;;;;;;;;5078221;28;20112;-47
2021/12/07 05:44:30;;;;;;;11.30;5.95;;;;;;;;;;5080223;28;20432;-45
2021/12/07 05:46:56;;;;;;;9.02;5.97;;;;;;;;;;5074103;28;20484;-45
2021/12/07 05:49:22;;;;;;;10.75;6.22;;;;;;;;;;5076394;28;20094;-46
2021/12/07 05:51:48;;;;;;;9.65;6.57;;;;;;;;;;5076961;28;20066;-48
2021/12/07 05:54:13;;;;;;;7.30;6.53;;;;;;;;;;5075480;28;20029;-46
2021/12/07 05:56:39;;;;;;;9.68;5.72;;;;;;;;;;5079788;28;20029;-47
2021/12/07 05:59:05;;;;;;;12.63;6.55;;;;;;;;;;5079419;28;20536;-45
2021/12/07 06:01:30;;;;;;;14.43;6.47;;;;;;;;;;5076492;28;20028;-50
2021/12/07 06:03:56;;;;;;;16.05;6.72;;;;;;;;;;5079610;28;20078;-45
2021/12/07 06:06:22;;;;;;;12.85;6.45;;;;;;;;;;5077243;28;20405;-45
2021/12/07 06:08:48;;;;;;;11.93;6.20;;;;;;;;;;5075480;28;20119;-45
2021/12/07 06:11:13;;;;;;;9.63;5.50;;;;;;;;;;5074704;28;20032;-50
2021/12/07 06:13:39;;;;;;;10.43;5.28;;;;;;;;;;5082709;28;20405;-50
2021/12/07 06:16:08;;;;;;;10.25;6.05;;;;;;;;;;5080040;28;20060;-52
2021/12/07 06:18:36;;;;;;;12.68;6.30;;;;;;;;;;5071660;28;20032;-49
2021/12/07 06:21:03;;;;;;;9.63;5.97;;;;;;;;;;5082277;28;20039;-46
2021/12/07 06:23:29;;;;;;;7.68;4.55;;;;;;;;;;5089451;28;20111;-45
2021/12/07 06:25:56;;;;;;;8.93;5.18;;;;;;;;;;5082428;28;20123;-47
2021/12/07 06:28:22;;;;;;;5.82;3.80;;;;;;;;;;5086133;28;20146;-51
2021/12/07 06:30:48;;;;;;;7.05;3.88;;;;;;;;;;5083575;28;20111;-46
2021/12/07 06:33:17;;;;;;;6.85;4.28;;;;;;;;;;5078522;28;20035;-45
2021/12/07 06:35:44;;;;;;;5.25;4.03;;;;;;;;;;5079310;28;20166;-50
2021/12/07 06:38:10;;;;;;;5.13;3.90;;;;;;;;;;5078890;28;20051;-46
2021/12/07 06:40:35;;;;;;;9.75;4.55;;;;;;;;;;5081093;28;20146;-51
2021/12/07 06:43:02;;;;;;;5.45;4.13;;;;;;;;;;5074083;28;20114;-47
2021/12/07 06:45:28;;;;;;;6.80;3.90;;;;;;;;;;5078397;28;20036;-46
2021/12/07 06:47:55;;;;;;;7.07;4.40;;;;;;;;;;5072586;28;20503;-51
2021/12/07 06:50:21;;;;;;;6.88;4.50;;;;;;;;;;5077878;28;20381;-48
2021/12/07 06:52:47;;;;;;;9.38;4.05;;;;;;;;;;5076272;28;20028;-50
2021/12/07 06:55:12;;;;;;;11.10;4.55;;;;;;;;;;5077610;28;20032;-46
2021/12/07 06:57:38;;;;;;;10.07;4.80;;;;;;;;;;5077843;28;20668;-52
2021/12/07 07:00:07;;;;;;;11.55;6.57;;;;;;;;;;5079334;28;20055;-49
2021/12/07 07:02:33;;;;;;;16.73;6.68;;;;;;;;;;5078040;28;20028;-51
2021/12/07 07:04:58;;;;;;;12.20;7.28;;;;;;;;;;5076632;28;20479;-52
2021/12/07 07:07:24;;;;;;;12.40;6.97;;;;;;;;;;5076590;28;20071;-47
2021/12/07 07:09:51;;;;;;;9.65;6.07;;;;;;;;;;5077114;28;20032;-46
2021/12/07 07:12:18;;;;;;;10.60;5.53;;;;;;;;;;5078654;28;20028;-51
2021/12/07 07:14:45;;;;;;;12.55;5.78;;;;;;;;;;5082603;28;20362;-45
2021/12/07 07:17:10;;;;;;;10.77;5.53;;;;;;;;;;5075036;28;20036;-45
2021/12/07 07:19:36;;;;;;;10.68;6.18;;;;;;;;;;5081170;28;20066;-53
2021/12/07 07:22:03;;;;;;;14.05;5.57;;;;;;;;;;5080149;28;20036;-48
2021/12/07 07:24:48;;;;;;;5.65;4.43;;;;;;;;;;5078904;28;20702;-52
2021/12/07 07:27:34;;;;;;;6.32;4.97;;;;;;;;;;5081715;28;20511;-50
2021/12/07 07:30:20;;;;;;;11.38;6.20;;;;;;;;;;5082977;28;20376;-50
2021/12/07 07:33:05;;;;;;;7.70;6.80;;;;;;;;;;5084022;28;20047;-45
2021/12/07 07:35:31;;;;;;;12.73;7.07;;;;;;;;;;5078265;28;20036;-52
2021/12/07 07:37:57;;;;;;;9.77;6.10;;;;;;;;;;5078906;28;20036;-50
2021/12/07 07:40:23;;;;;;;10.70;6.43;;;;;;;;;;5084127;28;20035;-49
2021/12/07 07:42:50;;;;;;;6.95;5.13;;;;;;;;;;5083399;28;20040;-47
2021/12/07 07:45:16;;;;;;;10.93;6.35;;;;;;;;;;5078498;28;20405;-51
2021/12/07 07:47:42;;;;;;;11.55;7.43;;;;;;;;;;5079071;28;20028;-50
2021/12/07 07:50:11;;;;;;;15.07;8.60;;;;;;;;;;5080945;28;20044;-47
2021/12/07 07:52:38;;;;;;;12.20;7.93;;;;;;;;;;5079574;28;20032;-45
2021/12/07 07:55:04;;;;;;;13.00;7.82;;;;;;;;;;5079808;28;20093;-48
2021/12/07 07:57:31;;;;;;;11.02;6.93;;;;;;;;;;5079847;28;20053;-53
2021/12/07 07:59:56;;;;;;;16.75;8.95;;;;;;;;;;5079497;28;20036;-50
2021/12/07 08:02:22;;;;;;;12.23;6.65;;;;;;;;;;5075553;28;20028;-53
2021/12/07 08:04:48;;;;;;;8.43;5.60;;;;;;;;;;5079855;28;20029;-49
2021/12/07 08:07:13;;;;;;;12.57;4.90;;;;;;;;;;5077655;28;20024;-51
2021/12/07 08:09:39;;;;;;;5.10;3.10;;;;;;;;;;5073595;28;20155;-46
2021/12/07 08:12:06;;;;;;;10.10;4.88;;;;;;;;;;5074034;28;20085;-46
2021/12/07 08:14:32;;;;;;;8.77;5.32;;;;;;;;;;5078024;28;20034;-51
2021/12/07 08:16:58;;;;;;;7.30;5.15;;;;;;;;;;5079209;28;20039;-51
2021/12/07 08:19:24;;;;;;;8.80;6.25;;;;;;;;;;5080103;28;20812;-47
2021/12/07 08:21:49;;;;;;;14.35;5.85;;;;;;;;;;5077925;28;20028;-53
2021/12/07 08:24:16;;;;;;;10.85;6.60;;;;;;;;;;5077516;28;20058;-50
2021/12/07 08:26:42;;;;;;;11.27;4.88;;;;;;;;;;5076381;28;20040;-50
2021/12/07 08:29:07;;;;;;;10.85;3.70;;;;;;;;;;5078266;28;20024;-50
2021/12/07 08:31:33;;;;;;;10.90;3.63;;;;;;;;;;5080077;28;20406;-51
2021/12/07 08:34:00;;;;;;;6.18;3.70;;;;;;;;;;5079177;28;20031;-51
2021/12/07 08:36:28;;;;;;;5.63;3.25;;;;;;;;;;5076759;28;20048;-48
2021/12/07 08:38:53;;;;;;;10.70;2.47;;;;;;;;;;5084693;28;20440;-47
2021/12/07 08:41:20;;;;;;;2.53;1.77;;;;;;;;;;5085224;28;20052;-50
2021/12/07 08:43:46;;;;;;;10.35;2.00;;;;;;;;;;5080333;28;20040;-50
2021/12/07 08:46:14;;;;;;;1.98;1.60;;;;;;;;;;5076540;28;20039;-49
2021/12/07 08:48:42;;;;;;;4.95;2.00;;;;;;;;;;5078601;28;20036;-52
2021/12/07 08:51:09;;;;;;;5.75;2.60;;;;;;;;;;5074491;28;20188;-49
2021/12/07 08:53:41;;;;;;;15.90;3.15;;;;;;;;;;5074387;28;20036;-52
2021/12/07 09:01:35;;;;;;;5.60;2.25;;;;;;;;;;5075526;28;20071;-52
2021/12/07 09:04:01;;;;;;;6.70;2.72;;;;;;;;;;5080702;28;20475;-53
2021/12/07 09:06:28;;;;;;;7.15;2.83;;;;;;;;;;5075683;28;20025;-50
2021/12/07 09:08:54;;;;;;;4.45;2.22;;;;;;;;;;5080665;28;20115;-53
2021/12/07 09:11:19;;;;;;;5.35;2.70;;;;;;;;;;5072443;28;20827;-54
2021/12/07 09:13:45;;;;;;;5.70;2.70;;;;;;;;;;5073099;28;20051;-53
2021/12/07 09:16:14;;;;;;;5.55;3.05;;;;;;;;;;5078166;28;20129;-49
2021/12/07 09:18:41;;;;;;;10.43;3.10;;;;;;;;;;5074890;28;20084;-54
2021/12/07 09:21:08;;;;;;;5.25;2.72;;;;;;;;;;5074484;28;20035;-52
2021/12/07 09:23:35;;;;;;;5.38;2.40;;;;;;;;;;5076698;28;20175;-54
2021/12/07 09:26:01;;;;;;;5.25;2.67;;;;;;;;;;5073373;28;20067;-53
2021/12/07 09:28:28;;;;;;;3.95;2.47;;;;;;;;;;5077347;28;20028;-53
2021/12/07 09:30:54;;;;;;;4.40;2.28;;;;;;;;;;5075636;28;20040;-52
2021/12/07 09:33:28;;;;;;;5.65;3.03;;;;;;;;;;5072944;28;20063;-53
2021/12/07 09:35:55;;;;;;;4.47;2.75;;;;;;;;;;5077300;28;20028;-52
2021/12/07 09:38:22;;;;;;;7.03;2.92;;;;;;;;;;5078558;28;20039;-46
2021/12/07 09:40:49;;;;;;;3.88;2.67;;;;;;;;;;5072923;28;20032;-45
2021/12/07 09:43:15;;;;;;;8.05;3.17;;;;;;;;;;5081339;28;20028;-48
2021/12/07 09:45:42;;;;;;;5.13;2.83;;;;;;;;;;5073871;28;20024;-48
2021/12/07 09:48:10;;;;;;;3.90;2.60;;;;;;;;;;5077481;28;20125;-46
2021/12/07 09:50:38;;;;;;;5.88;2.70;;;;;;;;;;5077383;28;20107;-48
2021/12/07 09:53:07;;;;;;;6.20;3.22;;;;;;;;;;5076414;28;20107;-50
2021/12/07 09:55:34;;;;;;;7.70;2.83;;;;;;;;;;5073740;28;20025;-48
2021/12/07 09:58:00;;;;;;;5.60;2.72;;;;;;;;;;5083267;28;20473;-45
2021/12/07 10:00:26;;;;;;;7.28;2.85;;;;;;;;;;5083360;28;20040;-47
2021/12/07 10:02:53;;;;;;;5.65;3.17;;;;;;;;;;5075103;28;20059;-49
2021/12/07 10:05:20;;;;;;;9.15;2.90;;;;;;;;;;5072228;28;20035;-48
2021/12/07 10:07:48;;;;;;;8.50;3.10;;;;;;;;;;5078385;28;20046;-49
2021/12/07 10:10:39;;;;;;;8.68;3.05;;;;;;;;;;5080569;28;20039;-48
2021/12/07 10:13:07;;;;;;;5.70;2.85;;;;;;;;;;5078484;28;20357;-48
2021/12/07 10:15:33;;;;;;;8.48;3.53;;;;;;;;;;5075699;28;20062;-47
2021/12/07 10:18:09;;;;;;;10.98;3.38;;;;;;;;;;5079016;28;20481;-46
2021/12/07 10:20:43;;;;;;;22.80;3.30;;;;;;;;;;5073460;28;20024;-48
2021/12/07 10:23:18;;;;;;;7.50;3.50;;;;;;;;;;5073241;28;20199;-46
2021/12/07 10:25:47;;;;;;;14.75;3.80;;;;;;;;;;5074091;28;20083;-46
2021/12/07 10:28:24;;;;;;;7.05;3.00;;;;;;;;;;5080576;28;20060;-46
2021/12/07 10:30:51;;;;;;;6.85;3.08;;;;;;;;;;5078108;28;20028;-48
2021/12/07 10:33:28;;;;;;;9.02;3.72;;;;;;;;;;5076116;28;20028;-46
2021/12/07 10:36:09;;;;;;;6.25;3.40;;;;;;;;;;5080760;28;20032;-46
2021/12/07 10:38:37;;;;;;;7.38;2.85;;;;;;;;;;5079714;28;20067;-47
2021/12/07 10:41:07;;;;;;;9.00;3.25;;;;;;;;;;5074721;28;20440;-47
2021/12/07 10:43:39;;;;;;;11.05;4.00;;;;;;;;;;5077578;28;20107;-46
2021/12/07 10:46:26;;;;;;;9.93;3.45;;;;;;;;;;5074621;28;20078;-49
2021/12/07 10:49:22;;;;;;;6.53;2.80;;;;;;;;;;5079129;28;20036;-46
2021/12/07 10:51:57;;;;;;;8.32;3.13;;;;;;;;;;5021964;28;20079;-46
2021/12/07 10:54:24;;;;;;;7.18;3.30;;;;;;;;;;5021554;28;20494;-47
2021/12/07 10:56:50;;;;;;;9.68;3.47;;;;;;;;;;5019417;28;20486;-47
2021/12/07 10:59:16;;;;;;;10.15;3.90;;;;;;;;;;5022721;28;20037;-46
2021/12/07 11:01:45;;;;;;;6.18;3.00;;;;;;;;;;5025600;28;20368;-45
2021/12/07 11:04:37;;;;;;;5.68;3.65;;;;;;;;;;5022504;28;20022;-46
2021/12/07 11:07:05;;;;;;;8.35;3.80;;;;;;;;;;5024525;28;20048;-48
2021/12/07 11:12:38;;;;;;;6.97;3.97;;;;;;;;;;5025233;28;20045;-48
2021/12/07 11:15:12;;;;;;;11.65;3.65;;;;;;;;;;5020968;28;20525;-49
2021/12/07 11:17:39;;;;;;;8.98;3.30;;;;;;;;;;5020525;28;20034;-48
2021/12/07 11:20:05;;;;;;;6.00;2.65;;;;;;;;;;5028409;28;20033;-49
2021/12/07 11:22:34;;;;;;;6.75;3.22;;;;;;;;;;5026955;28;20044;-47
2021/12/07 11:25:03;;;;;;;8.88;3.42;;;;;;;;;;5024302;28;20123;-47
2021/12/07 11:30:26;;;;;;;7.28;3.17;;;;;;;;;;5068535;28;20040;-48
2021/12/07 11:32:56;;;;;;;7.90;2.55;;;;;;;;;;5068912;28;20094;-50
2021/12/07 11:35:34;;;;;;;8.10;3.50;;;;;;;;;;5068535;28;20179;-46
2021/12/07 11:38:05;;;;;;;7.53;3.13;;;;;;;;;;5068053;28;20040;-53
2021/12/07 11:40:37;;;;;;;9.52;2.47;;;;;;;;;;5066641;28;20107;-46
2021/12/07 11:43:19;;;;;;;6.43;3.08;;;;;;;;;;5067420;28;20111;-48
2021/12/07 11:45:45;;;;;;;9.40;2.75;;;;;;;;;;5064242;28;20400;-47
2021/12/07 11:48:11;;;;;;;7.93;3.65;;;;;;;;;;5067566;28;20044;-47
2021/12/07 11:50:47;;;;;;;8.85;2.20;;;;;;;;;;5064995;28;20123;-47
2021/12/07 11:53:24;;;;;;;8.52;2.47;;;;;;;;;;5067361;28;20040;-45
2021/12/07 11:55:54;;;;;;;4.00;2.05;;;;;;;;;;5052199;28;20028;-46
2021/12/07 11:58:20;;;;;;;5.80;2.83;;;;;;;;;;5066542;28;20047;-46
2021/12/07 12:00:53;;;;;;;7.10;2.42;;;;;;;;;;5069013;28;20036;-46
2021/12/07 12:03:22;;;;;;;7.25;2.25;;;;;;;;;;5068254;28;20032;-48
2021/12/07 12:05:49;;;;;;;7.82;2.28;;;;;;;;;;5066543;28;20036;-45
2021/12/07 12:08:19;;;;;;;5.13;2.20;;;;;;;;;;5074190;28;20072;-46
2021/12/07 12:10:48;;;;;;;5.00;2.13;;;;;;;;;;5081242;28;20111;-45
2021/12/07 12:13:30;;;;;;;7.57;2.20;;;;;;;;;;5080177;28;20401;-47
2021/12/07 12:16:22;;;;;;;3.22;1.63;;;;;;;;;;5081539;28;20039;-46
2021/12/07 12:19:17;;;;;;;8.25;2.15;;;;;;;;;;5081987;28;20042;-50
2021/12/07 12:22:07;;;;;;;11.30;2.55;;;;;;;;;;5082967;28;20377;-46
2021/12/07 12:24:48;;;;;;;4.63;1.80;;;;;;;;;;5083823;28;20059;-49
2021/12/07 12:27:27;;;;;;;6.43;1.67;;;;;;;;;;5074503;28;20028;-46
2021/12/07 12:29:55;;;;;;;6.25;1.98;;;;;;;;;;5075533;28;20473;-46
2021/12/07 12:32:46;;;;;;;6.78;2.22;;;;;;;;;;5076269;28;20028;-49
2021/12/07 12:35:13;;;;;;;5.53;1.95;;;;;;;;;;5074888;28;20016;-47
2021/12/07 12:37:46;;;;;;;3.75;1.88;;;;;;;;;;5074134;28;20119;-46
2021/12/07 12:40:22;;;;;;;4.57;1.80;;;;;;;;;;5081729;28;20495;-48
2021/12/07 12:42:52;;;;;;;7.18;1.70;;;;;;;;;;5074278;28;20086;-46
2021/12/07 12:45:28;;;;;;;5.65;2.15;;;;;;;;;;5073180;28;20020;-49
2021/12/07 12:48:03;;;;;;;3.78;2.63;;;;;;;;;;5075368;28;20028;-50
2021/12/07 12:50:33;;;;;;;9.18;2.50;;;;;;;;;;5078805;28;20472;-47
2021/12/07 12:53:11;;;;;;;3.97;1.83;;;;;;;;;;5077892;28;20032;-49
2021/12/07 12:55:44;;;;;;;6.93;1.90;;;;;;;;;;5076935;28;20028;-46
2021/12/07 12:58:19;;;;;;;6.00;1.70;;;;;;;;;;5080823;28;20062;-48
2021/12/07 13:01:16;;;;;;;5.78;1.63;;;;;;;;;;5083573;28;20131;-47
2021/12/07 13:03:45;;;;;;;11.40;1.52;;;;;;;;;;5081152;28;20033;-47
2021/12/07 13:06:16;;;;;;;7.63;1.90;;;;;;;;;;5076837;28;20350;-48
2021/12/07 13:08:55;;;;;;;3.78;1.83;;;;;;;;;;5075837;28;20040;-47
2021/12/07 13:11:59;;;;;;;6.93;2.78;;;;;;;;;;5076311;28;20129;-46
2021/12/07 13:14:24;;;;;;;5.40;2.53;;;;;;;;;;5075599;28;20044;-47
2021/12/07 13:17:13;;;;;;;8.48;2.88;;;;;;;;;;5078453;28;20555;-53
2021/12/07 13:20:08;;;;;;;14.00;2.72;;;;;;;;;;5082527;28;20501;-50
2021/12/07 13:22:50;;;;;;;3.55;2.13;;;;;;;;;;5078810;28;20435;-47
2021/12/07 13:25:29;;;;;;;7.53;2.50;;;;;;;;;;5083415;28;20040;-47
2021/12/07 13:28:01;;;;;;;7.10;2.90;;;;;;;;;;5080241;28;20032;-51
2021/12/07 13:30:40;;;;;;;4.72;2.00;;;;;;;;;;5082215;28;20077;-48
2021/12/07 13:33:17;;;;;;;8.85;2.22;;;;;;;;;;5071303;28;20033;-47
2021/12/07 13:35:43;;;;;;;6.47;1.98;;;;;;;;;;5083282;28;20032;-47
2021/12/07 13:38:20;;;;;;;8.38;2.88;;;;;;;;;;5080981;28;20036;-48
2021/12/07 13:40:47;;;;;;;7.72;3.50;;;;;;;;;;5080914;28;20123;-47
2021/12/07 13:43:36;;;;;;;7.55;2.67;;;;;;;;;;5081139;28;20035;-48
2021/12/07 13:46:14;;;;;;;12.32;5.55;;;;;;;;;;5077127;28;20096;-45
2021/12/07 13:48:42;;;;;;;9.90;5.07;;;;;;;;;;5072203;28;20039;-46
2021/12/07 13:51:10;;;;;;;8.20;3.78;;;;;;;;;;5078092;28;20024;-49
2021/12/07 13:53:39;;;;;;;6.40;2.25;;;;;;;;;;5075160;28;20381;-50
2021/12/07 13:56:06;;;;;;;10.90;2.50;;;;;;;;;;5073461;28;20035;-50
2021/12/07 13:58:59;;;;;;;10.60;3.90;;;;;;;;;;5073539;28;20252;-49
2021/12/07 14:01:31;;;;;;;4.90;3.28;;;;;;;;;;5072709;28;20082;-51
2021/12/07 14:03:58;;;;;;;7.18;2.80;;;;;;;;;;5079171;28;20024;-46
2021/12/07 14:06:25;;;;;;;7.57;3.63;;;;;;;;;;5078777;28;20020;-49
2021/12/07 14:08:51;;;;;;;5.90;3.42;;;;;;;;;;5076602;28;20123;-47
2021/12/07 14:11:19;;;;;;;9.43;3.72;;;;;;;;;;5076170;28;20028;-46
2021/12/07 14:13:49;;;;;;;16.58;3.75;;;;;;;;;;5071336;28;20027;-46
2021/12/07 14:16:21;;;;;;;13.20;4.15;;;;;;;;;;5081411;28;20035;-46
2021/12/07 14:18:47;;;;;;;7.97;3.60;;;;;;;;;;5072748;28;20064;-46
2021/12/07 14:21:13;;;;;;;10.55;5.65;;;;;;;;;;5074613;28;20065;-47
2021/12/07 14:23:40;;;;;;;9.75;3.72;;;;;;;;;;5076346;28;20186;-46
2021/12/07 14:26:10;;;;;;;9.93;4.80;;;;;;;;;;5077911;28;20458;-48
2021/12/07 14:28:37;;;;;;;11.50;5.72;;;;;;;;;;5077978;28;20033;-47
2021/12/07 14:31:14;;;;;;;15.23;6.65;;;;;;;;;;5074981;28;20031;-48
2021/12/07 14:33:44;;;;;;;13.30;5.88;;;;;;;;;;5078269;28;20663;-48
2021/12/07 14:36:11;;;;;;;12.18;6.38;;;;;;;;;;5076840;28;20040;-48
2021/12/07 14:38:38;;;;;;;13.60;6.00;;;;;;;;;;5073206;28;20040;-49
2021/12/07 14:41:10;;;;;;;11.15;5.15;;;;;;;;;;5077920;28;20021;-47
2021/12/07 14:43:37;;;;;;;8.40;4.50;;;;;;;;;;5077041;28;20073;-46
2021/12/07 14:46:05;;;;;;;10.10;3.88;;;;;;;;;;5083401;28;20540;-49
2021/12/07 14:48:32;;;;;;;13.13;3.80;;;;;;;;;;5079238;28;20024;-47
2021/12/07 14:51:09;;;;;;;9.07;3.08;;;;;;;;;;5075000;28;20099;-50
2021/12/07 14:53:40;;;;;;;8.68;2.90;;;;;;;;;;5084844;28;20029;-47
2021/12/07 14:56:09;;;;;;;15.25;5.20;;;;;;;;;;5081034;28;20089;-49
2021/12/07 14:58:37;;;;;;;11.60;4.20;;;;;;;;;;5079428;28;20033;-51
2021/12/07 15:01:12;;;;;;;10.55;3.65;;;;;;;;;;5079366;28;20051;-53
2021/12/07 15:03:45;;;;;;;8.27;3.45;;;;;;;;;;5076708;28;20031;-46
2021/12/07 15:06:12;;;;;;;8.38;3.75;;;;;;;;;;5080138;28;20501;-49
2021/12/07 15:08:41;;;;;;;11.25;4.32;;;;;;;;;;5081672;28;20032;-46
2021/12/07 15:11:08;;;;;;;6.78;3.53;;;;;;;;;;5077024;28;20039;-49
2021/12/07 15:13:34;;;;;;;13.90;5.13;;;;;;;;;;5077565;28;20028;-52
2021/12/07 15:16:02;;;;;;;9.60;5.32;;;;;;;;;;5082126;28;20491;-51
2021/12/07 15:18:30;;;;;;;14.18;4.38;;;;;;;;;;5075572;28;20043;-53
2021/12/07 15:20:57;;;;;;;8.98;4.80;;;;;;;;;;5081308;28;20115;-48
2021/12/07 15:23:23;;;;;;;7.28;4.38;;;;;;;;;;5076715;28;20686;-53
2021/12/07 15:25:54;;;;;;;10.93;4.80;;;;;;;;;;5082197;28;20074;-49
2021/12/07 15:28:20;;;;;;;15.48;5.13;;;;;;;;;;5079721;28;20128;-51
2021/12/07 15:30:49;;;;;;;19.55;4.93;;;;;;;;;;5078024;28;20036;-54
2021/12/07 15:33:15;;;;;;;9.45;4.20;;;;;;;;;;5081187;28;20049;-51
2021/12/07 15:35:44;;;;;;;16.95;7.13;;;;;;;;;;5077860;28;20115;-52
2021/12/07 15:38:20;;;;;;;17.50;7.38;;;;;;;;;;5087082;28;20366;-52
2021/12/07 15:40:46;;;;;;;19.92;7.35;;;;;;;;;;5080556;28;20044;-46
2021/12/07 15:43:14;;;;;;;14.48;7.50;;;;;;;;;;5080113;28;20036;-51
2021/12/07 15:45:42;;;;;;;12.85;6.50;;;;;;;;;;5078444;28;20024;-47
2021/12/07 15:48:08;;;;;;;17.77;8.07;;;;;;;;;;5074566;28;20041;-52
2021/12/07 15:50:37;;;;;;;18.98;8.00;;;;;;;;;;5078866;28;20039;-48
2021/12/07 15:53:08;;;;;;;17.35;8.90;;;;;;;;;;5080887;28;20059;-47
2021/12/07 15:55:39;;;;;;;31.98;15.05;;;;;;;;;;5083109;28;20525;-49
2021/12/07 15:58:19;;;;;;;27.35;15.13;;;;;;;;;;5080299;28;20499;-51
2021/12/07 16:00:50;;;;;;;35.65;18.23;;;;;;;;;;5075150;28;20041;-47
2021/12/07 16:03:20;;;;;;;19.15;10.93;;;;;;;;;;5074770;28;20583;-46
2021/12/07 16:05:52;;;;;;;12.45;6.72;;;;;;;;;;5079601;28;20100;-48
2021/12/07 16:08:22;;;;;;;10.60;5.43;;;;;;;;;;5075485;28;20055;-54
2021/12/07 16:10:54;;;;;;;16.65;6.53;;;;;;;;;;5077231;28;20080;-49
2021/12/07 16:13:23;;;;;;;;;;;;;;;;;;5082318;28;20028;-54
2021/12/07 16:15:56;;;;;;;11.38;7.95;;;;;;;;;;5077457;28;19960;-50
2021/12/07 16:18:23;;;;;;;16.65;8.23;;;;;;;;;;5075277;28;20032;-49
2021/12/07 16:20:50;;;;;;;16.15;7.30;;;;;;;;;;5082080;28;20028;-49
2021/12/07 16:23:17;;;;;;;19.33;7.47;;;;;;;;;;5074135;28;20063;-49
2021/12/07 16:25:44;;;;;;;18.70;10.07;;;;;;;;;;5081086;28;20105;-53
2021/12/07 16:28:11;;;;;;;22.58;13.38;;;;;;;;;;5074735;28;20033;-49
2021/12/07 16:30:37;;;;;;;25.55;15.23;;;;;;;;;;5079621;28;20034;-52
2021/12/07 16:33:04;;;;;;;13.55;7.60;;;;;;;;;;5080358;28;20594;-48
2021/12/07 16:35:30;;;;;;;16.27;7.22;;;;;;;;;;5082460;28;20032;-49
2021/12/07 16:37:57;;;;;;;13.15;6.75;;;;;;;;;;5074298;28;20047;-51
2021/12/07 16:40:24;;;;;;;18.05;8.70;;;;;;;;;;5076043;28;20542;-50
2021/12/07 16:42:52;;;;;;;20.45;9.52;;;;;;;;;;5080105;28;20066;-52
2021/12/07 16:45:21;;;;;;;20.48;10.57;;;;;;;;;;5079780;28;20035;-54